SJV863 WIMM-WIEE
Flight info
| Callsign | SJV863 |
|---|---|
| Flight time | 0h 54m |
| Altitude | 35000 |
| Route | NOKEL |
| Aircraft | A320/M-SDE3FGHIRWY/LB1 |
Departure
| Time | 2026-05-08 14:38 |
|---|---|
| Airport | Kualanamu International Airport (WIMM) |
Arrival
| Time | 2026-05-08 15:32 |
|---|---|
| Airport | Minangkabau International Airport (WIEE) |
| Time | Latitude | Longitude | Altitude | Speed | Heading |
|---|---|---|---|---|---|
| 2026-05-08 14:27 | 3.63692 | 98.88155 | 30 ft | 0 kts | 316° |
| 2026-05-08 14:27 | 3.63691 | 98.88155 | 30 ft | 0 kts | 316° |
| 2026-05-08 14:29 | 3.63692 | 98.88154 | 30 ft | 0 kts | 316° |
| 2026-05-08 14:29 | 3.63696 | 98.88151 | 30 ft | 1 kts | 317° |
| 2026-05-08 14:29 | 3.63703 | 98.88144 | 30 ft | 1 kts | 317° |
| 2026-05-08 14:30 | 3.63720 | 98.88129 | 30 ft | 6 kts | 316° |
| 2026-05-08 14:30 | 3.63752 | 98.88095 | 31 ft | 6 kts | 313° |
| 2026-05-08 14:30 | 3.63784 | 98.88062 | 31 ft | 6 kts | 314° |
| 2026-05-08 14:30 | 3.63817 | 98.88028 | 32 ft | 6 kts | 316° |
| 2026-05-08 14:31 | 3.63853 | 98.87994 | 32 ft | 7 kts | 316° |
| 2026-05-08 14:31 | 3.63895 | 98.87962 | 32 ft | 7 kts | 349° |
| 2026-05-08 14:31 | 3.63944 | 98.87987 | 32 ft | 8 kts | 45° |
| 2026-05-08 14:32 | 3.64036 | 98.88079 | 34 ft | 8 kts | 44° |
| 2026-05-08 14:32 | 3.64078 | 98.88120 | 36 ft | 8 kts | 45° |
| 2026-05-08 14:32 | 3.64119 | 98.88161 | 36 ft | 8 kts | 45° |
| 2026-05-08 14:32 | 3.64156 | 98.88197 | 38 ft | 6 kts | 45° |
| 2026-05-08 14:33 | 3.64204 | 98.88201 | 38 ft | 8 kts | 328° |
| 2026-05-08 14:33 | 3.64249 | 98.88158 | 38 ft | 9 kts | 314° |
| 2026-05-08 14:33 | 3.64297 | 98.88110 | 38 ft | 9 kts | 315° |
| 2026-05-08 14:33 | 3.64349 | 98.88058 | 37 ft | 11 kts | 315° |
| 2026-05-08 14:34 | 3.64409 | 98.88001 | 35 ft | 10 kts | 322° |
| 2026-05-08 14:34 | 3.64480 | 98.88009 | 36 ft | 11 kts | 43° |
| 2026-05-08 14:34 | 3.64537 | 98.88063 | 36 ft | 11 kts | 44° |
| 2026-05-08 14:34 | 3.64594 | 98.88116 | 38 ft | 11 kts | 44° |
| 2026-05-08 14:35 | 3.64648 | 98.88170 | 39 ft | 10 kts | 44° |
| 2026-05-08 14:35 | 3.64703 | 98.88224 | 39 ft | 10 kts | 45° |
| 2026-05-08 14:35 | 3.64756 | 98.88276 | 40 ft | 10 kts | 45° |
| 2026-05-08 14:35 | 3.64801 | 98.88319 | 41 ft | 8 kts | 39° |
| 2026-05-08 14:36 | 3.64863 | 98.88330 | 41 ft | 10 kts | 348° |
| 2026-05-08 14:36 | 3.64918 | 98.88296 | 39 ft | 9 kts | 307° |
| 2026-05-08 14:36 | 3.64934 | 98.88223 | 38 ft | 11 kts | 262° |
| 2026-05-08 14:36 | 3.64905 | 98.88169 | 37 ft | 7 kts | 225° |
| 2026-05-08 14:37 | 3.64761 | 98.88028 | 35 ft | 62 kts | 224° |
| 2026-05-08 14:37 | 3.64295 | 98.87564 | 25 ft | 124 kts | 225° |
| 2026-05-08 14:37 | 3.63547 | 98.86824 | 48 ft | 172 kts | 224° |
| 2026-05-08 14:37 | 3.62687 | 98.85977 | 511 ft | 177 kts | 224° |
| 2026-05-08 14:38 | 3.61797 | 98.85083 | 1069 ft | 184 kts | 225° |
| 2026-05-08 14:38 | 3.60908 | 98.84148 | 1687 ft | 187 kts | 226° |
| 2026-05-08 14:38 | 3.59996 | 98.83245 | 2247 ft | 189 kts | 217° |
| 2026-05-08 14:38 | 3.58728 | 98.82813 | 2526 ft | 201 kts | 175° |
| 2026-05-08 14:39 | 3.57407 | 98.83351 | 2768 ft | 219 kts | 140° |
| 2026-05-08 14:39 | 3.56202 | 98.84408 | 3138 ft | 237 kts | 137° |
| 2026-05-08 14:39 | 3.54923 | 98.85525 | 3520 ft | 254 kts | 139° |
| 2026-05-08 14:39 | 3.53540 | 98.86706 | 3988 ft | 268 kts | 140° |
| 2026-05-08 14:40 | 3.52095 | 98.87923 | 4729 ft | 272 kts | 140° |
| 2026-05-08 14:40 | 3.50656 | 98.89127 | 5456 ft | 275 kts | 140° |
| 2026-05-08 14:40 | 3.49181 | 98.90356 | 6183 ft | 279 kts | 140° |
| 2026-05-08 14:40 | 3.47682 | 98.91599 | 6921 ft | 283 kts | 140° |
| 2026-05-08 14:41 | 3.46160 | 98.92857 | 7643 ft | 287 kts | 140° |
| 2026-05-08 14:41 | 3.44615 | 98.94136 | 8385 ft | 290 kts | 139° |
| 2026-05-08 14:41 | 3.43059 | 98.95427 | 9086 ft | 294 kts | 139° |
| 2026-05-08 14:41 | 3.41480 | 98.96739 | 9777 ft | 297 kts | 139° |
| 2026-05-08 14:42 | 3.39880 | 98.98068 | 10437 ft | 300 kts | 139° |
| 2026-05-08 14:42 | 3.38244 | 98.99425 | 10788 ft | 315 kts | 139° |
| 2026-05-08 14:42 | 3.36523 | 99.00855 | 11112 ft | 329 kts | 139° |
| 2026-05-08 14:42 | 3.34734 | 99.02340 | 11641 ft | 334 kts | 139° |
| 2026-05-08 14:43 | 3.32935 | 99.03831 | 12256 ft | 336 kts | 139° |
| 2026-05-08 14:43 | 3.31116 | 99.05335 | 12868 ft | 338 kts | 138° |
| 2026-05-08 14:43 | 3.29296 | 99.06844 | 13428 ft | 341 kts | 138° |
| 2026-05-08 14:43 | 3.27472 | 99.08359 | 13966 ft | 343 kts | 138° |
| 2026-05-08 14:44 | 3.25626 | 99.09888 | 14506 ft | 346 kts | 138° |
| 2026-05-08 14:44 | 3.23784 | 99.11417 | 15033 ft | 348 kts | 138° |
| 2026-05-08 14:44 | 3.21912 | 99.12968 | 15553 ft | 350 kts | 138° |
| 2026-05-08 14:44 | 3.20016 | 99.14539 | 16068 ft | 351 kts | 137° |
| 2026-05-08 14:45 | 3.18154 | 99.16084 | 16571 ft | 352 kts | 137° |
| 2026-05-08 14:45 | 3.16248 | 99.17665 | 17040 ft | 355 kts | 137° |
| 2026-05-08 14:45 | 3.14352 | 99.19239 | 17495 ft | 357 kts | 137° |
| 2026-05-08 14:45 | 3.12430 | 99.20833 | 17882 ft | 361 kts | 137° |
| 2026-05-08 14:46 | 3.10482 | 99.22447 | 18163 ft | 368 kts | 138° |
| 2026-05-08 14:46 | 3.08334 | 99.23891 | 18545 ft | 376 kts | 150° |
| 2026-05-08 14:46 | 3.05839 | 99.24821 | 18969 ft | 382 kts | 163° |
| 2026-05-08 14:46 | 3.03209 | 99.25239 | 19387 ft | 386 kts | 170° |
| 2026-05-08 14:47 | 3.00531 | 99.25530 | 19791 ft | 388 kts | 171° |
| 2026-05-08 14:47 | 2.97827 | 99.25808 | 20179 ft | 390 kts | 171° |
| 2026-05-08 14:47 | 2.95112 | 99.26093 | 20554 ft | 392 kts | 171° |
| 2026-05-08 14:47 | 2.92389 | 99.26385 | 20921 ft | 394 kts | 171° |
| 2026-05-08 14:48 | 2.89668 | 99.26681 | 21269 ft | 396 kts | 171° |
| 2026-05-08 14:48 | 2.86880 | 99.26988 | 21613 ft | 398 kts | 171° |
| 2026-05-08 14:48 | 2.84141 | 99.27291 | 21950 ft | 400 kts | 171° |
| 2026-05-08 14:48 | 2.81350 | 99.27600 | 22289 ft | 401 kts | 171° |
| 2026-05-08 14:49 | 2.78561 | 99.27910 | 22606 ft | 403 kts | 171° |
| 2026-05-08 14:49 | 2.75752 | 99.28221 | 22933 ft | 405 kts | 171° |
| 2026-05-08 14:49 | 2.72968 | 99.28530 | 23279 ft | 406 kts | 171° |
| 2026-05-08 14:49 | 2.70137 | 99.28844 | 23624 ft | 407 kts | 171° |
| 2026-05-08 14:50 | 2.67331 | 99.29154 | 23947 ft | 408 kts | 171° |
| 2026-05-08 14:50 | 2.64495 | 99.29469 | 24276 ft | 409 kts | 171° |
| 2026-05-08 14:50 | 2.61647 | 99.29785 | 24585 ft | 411 kts | 171° |
| 2026-05-08 14:50 | 2.58800 | 99.30102 | 24883 ft | 412 kts | 171° |
| 2026-05-08 14:51 | 2.55937 | 99.30419 | 25178 ft | 414 kts | 171° |
| 2026-05-08 14:51 | 2.53059 | 99.30739 | 25464 ft | 416 kts | 171° |
| 2026-05-08 14:51 | 2.50151 | 99.31061 | 25749 ft | 418 kts | 171° |
| 2026-05-08 14:51 | 2.47272 | 99.31380 | 26031 ft | 419 kts | 171° |
| 2026-05-08 14:52 | 2.44340 | 99.31704 | 26313 ft | 421 kts | 171° |
| 2026-05-08 14:52 | 2.38463 | 99.32355 | 26861 ft | 425 kts | 171° |
| 2026-05-08 14:52 | 2.35519 | 99.32680 | 27149 ft | 426 kts | 171° |
| 2026-05-08 14:53 | 2.32560 | 99.33008 | 27428 ft | 427 kts | 171° |
| 2026-05-08 14:53 | 2.29620 | 99.33333 | 27706 ft | 428 kts | 171° |
| 2026-05-08 14:53 | 2.26642 | 99.33662 | 27973 ft | 430 kts | 171° |
| 2026-05-08 14:53 | 2.23661 | 99.33992 | 28231 ft | 432 kts | 171° |
| 2026-05-08 14:54 | 2.20654 | 99.34325 | 28471 ft | 434 kts | 171° |
| 2026-05-08 14:54 | 2.17644 | 99.34659 | 28719 ft | 436 kts | 171° |
| 2026-05-08 14:54 | 2.14603 | 99.34995 | 28944 ft | 438 kts | 171° |
| 2026-05-08 14:54 | 2.11535 | 99.35336 | 29168 ft | 441 kts | 171° |
| 2026-05-08 14:55 | 2.08491 | 99.35674 | 29411 ft | 443 kts | 171° |
| 2026-05-08 14:55 | 2.05434 | 99.36011 | 29638 ft | 445 kts | 171° |
| 2026-05-08 14:55 | 2.02326 | 99.36355 | 29878 ft | 447 kts | 171° |
| 2026-05-08 14:55 | 1.99241 | 99.36695 | 30120 ft | 449 kts | 171° |
| 2026-05-08 14:56 | 1.96118 | 99.37041 | 30361 ft | 451 kts | 171° |
| 2026-05-08 14:56 | 1.92977 | 99.37390 | 30620 ft | 452 kts | 171° |
| 2026-05-08 14:56 | 1.89859 | 99.37735 | 30964 ft | 451 kts | 171° |
| 2026-05-08 14:56 | 1.86722 | 99.38081 | 31337 ft | 449 kts | 171° |
| 2026-05-08 14:57 | 1.83625 | 99.38422 | 31662 ft | 448 kts | 171° |
| 2026-05-08 14:57 | 1.80494 | 99.38770 | 31910 ft | 450 kts | 171° |
| 2026-05-08 14:57 | 1.77388 | 99.39115 | 32154 ft | 451 kts | 171° |
| 2026-05-08 14:57 | 1.74259 | 99.39460 | 32393 ft | 452 kts | 171° |
| 2026-05-08 14:58 | 1.71106 | 99.39809 | 32659 ft | 453 kts | 171° |
| 2026-05-08 14:58 | 1.67955 | 99.40158 | 32932 ft | 454 kts | 171° |
| 2026-05-08 14:58 | 1.64805 | 99.40506 | 33006 ft | 455 kts | 171° |
| 2026-05-08 14:59 | 1.58518 | 99.41200 | 33002 ft | 456 kts | 171° |
| 2026-05-08 14:59 | 1.49021 | 99.42271 | 32988 ft | 454 kts | 169° |
| 2026-05-08 15:00 | 1.42852 | 99.43447 | 32992 ft | 451 kts | 163° |
| 2026-05-08 15:00 | 1.36801 | 99.45180 | 32992 ft | 450 kts | 160° |
| 2026-05-08 15:01 | 1.30803 | 99.46974 | 32994 ft | 450 kts | 160° |
| 2026-05-08 15:01 | 1.24800 | 99.48767 | 33004 ft | 450 kts | 160° |
| 2026-05-08 15:02 | 1.18785 | 99.50562 | 32997 ft | 449 kts | 160° |
| 2026-05-08 15:02 | 1.12797 | 99.52348 | 32986 ft | 449 kts | 161° |
| 2026-05-08 15:03 | 1.06759 | 99.54148 | 32974 ft | 449 kts | 161° |
| 2026-05-08 15:03 | 1.00772 | 99.55931 | 32959 ft | 449 kts | 161° |
| 2026-05-08 15:04 | 0.94788 | 99.57713 | 32960 ft | 449 kts | 161° |
| 2026-05-08 15:04 | 0.88793 | 99.59500 | 32982 ft | 449 kts | 161° |
| 2026-05-08 15:05 | 0.82795 | 99.61288 | 33004 ft | 449 kts | 161° |
| 2026-05-08 15:05 | 0.76775 | 99.63081 | 33026 ft | 449 kts | 160° |
| 2026-05-08 15:06 | 0.70787 | 99.64867 | 33044 ft | 449 kts | 161° |
| 2026-05-08 15:06 | 0.64797 | 99.66652 | 33053 ft | 449 kts | 160° |
| 2026-05-08 15:07 | 0.58779 | 99.68443 | 33060 ft | 450 kts | 161° |
| 2026-05-08 15:07 | 0.52764 | 99.70236 | 33070 ft | 451 kts | 160° |
| 2026-05-08 15:08 | 0.47747 | 99.71730 | 33077 ft | 451 kts | 161° |
| 2026-05-08 15:08 | 0.40709 | 99.73827 | 33050 ft | 452 kts | 160° |
| 2026-05-08 15:09 | 0.34651 | 99.75633 | 33015 ft | 452 kts | 160° |
| 2026-05-08 15:09 | 0.28637 | 99.77422 | 32983 ft | 453 kts | 160° |
| 2026-05-08 15:10 | 0.22553 | 99.79237 | 32959 ft | 453 kts | 160° |
| 2026-05-08 15:10 | 0.16506 | 99.81039 | 32952 ft | 454 kts | 160° |
| 2026-05-08 15:11 | 0.10447 | 99.82844 | 32903 ft | 451 kts | 160° |
| 2026-05-08 15:11 | 0.07437 | 99.83739 | 32461 ft | 447 kts | 160° |
| 2026-05-08 15:11 | 0.04476 | 99.84622 | 31515 ft | 453 kts | 160° |
| 2026-05-08 15:12 | 0.01407 | 99.85541 | 30217 ft | 466 kts | 161° |
| 2026-05-08 15:12 | -0.01718 | 99.86475 | 29145 ft | 471 kts | 161° |
| 2026-05-08 15:12 | -0.04838 | 99.87404 | 28635 ft | 463 kts | 161° |
| 2026-05-08 15:12 | -0.07907 | 99.88315 | 28103 ft | 457 kts | 161° |
| 2026-05-08 15:13 | -0.10945 | 99.89220 | 27092 ft | 464 kts | 161° |
| 2026-05-08 15:13 | -0.14070 | 99.90154 | 25668 ft | 478 kts | 161° |
| 2026-05-08 15:13 | -0.17295 | 99.91117 | 24198 ft | 489 kts | 161° |
| 2026-05-08 15:13 | -0.20540 | 99.92084 | 23187 ft | 488 kts | 161° |
| 2026-05-08 15:14 | -0.23764 | 99.93044 | 22689 ft | 476 kts | 161° |
| 2026-05-08 15:14 | -0.26911 | 99.93978 | 22148 ft | 464 kts | 161° |
| 2026-05-08 15:14 | -0.29951 | 99.94881 | 21421 ft | 445 kts | 161° |
| 2026-05-08 15:14 | -0.32842 | 99.95743 | 20555 ft | 429 kts | 161° |
| 2026-05-08 15:15 | -0.35651 | 99.96580 | 19713 ft | 413 kts | 161° |
| 2026-05-08 15:15 | -0.38353 | 99.97327 | 19078 ft | 396 kts | 167° |
| 2026-05-08 15:15 | -0.41052 | 99.97601 | 18544 ft | 387 kts | 178° |
| 2026-05-08 15:15 | -0.43726 | 99.97358 | 18047 ft | 386 kts | 187° |
| 2026-05-08 15:16 | -0.46378 | 99.96894 | 17551 ft | 384 kts | 189° |
| 2026-05-08 15:16 | -0.49020 | 99.96397 | 17068 ft | 383 kts | 189° |
| 2026-05-08 15:16 | -0.51635 | 99.95909 | 16582 ft | 382 kts | 189° |
| 2026-05-08 15:16 | -0.54236 | 99.95431 | 16109 ft | 380 kts | 189° |
| 2026-05-08 15:17 | -0.56850 | 99.94955 | 15635 ft | 379 kts | 189° |
| 2026-05-08 15:17 | -0.59432 | 99.94488 | 15167 ft | 377 kts | 189° |
| 2026-05-08 15:17 | -0.62016 | 99.94022 | 14692 ft | 375 kts | 189° |
| 2026-05-08 15:17 | -0.64615 | 99.93553 | 14216 ft | 374 kts | 190° |
| 2026-05-08 15:18 | -0.67146 | 99.93096 | 13744 ft | 372 kts | 190° |
| 2026-05-08 15:18 | -0.69721 | 99.92632 | 13265 ft | 370 kts | 190° |
| 2026-05-08 15:18 | -0.72252 | 99.92175 | 12795 ft | 369 kts | 190° |
| 2026-05-08 15:18 | -0.74754 | 99.91734 | 12319 ft | 366 kts | 187° |
| 2026-05-08 15:19 | -0.77300 | 99.91760 | 11829 ft | 363 kts | 168° |
| 2026-05-08 15:19 | -0.79634 | 99.92546 | 11737 ft | 346 kts | 154° |
| 2026-05-08 15:19 | -0.81782 | 99.93571 | 11759 ft | 340 kts | 153° |
| 2026-05-08 15:19 | -0.83901 | 99.94607 | 11781 ft | 339 kts | 153° |
| 2026-05-08 15:20 | -0.86033 | 99.95647 | 11790 ft | 339 kts | 153° |
| 2026-05-08 15:20 | -0.88172 | 99.96681 | 11440 ft | 341 kts | 153° |
| 2026-05-08 15:20 | -0.90322 | 99.97714 | 10965 ft | 342 kts | 153° |
| 2026-05-08 15:20 | -0.92462 | 99.98739 | 10506 ft | 341 kts | 153° |
| 2026-05-08 15:21 | -0.94620 | 99.99770 | 10207 ft | 335 kts | 153° |
| 2026-05-08 15:21 | -0.96677 | 100.00753 | 10063 ft | 325 kts | 153° |
| 2026-05-08 15:21 | -0.98709 | 100.01724 | 9707 ft | 325 kts | 153° |
| 2026-05-08 15:21 | -1.00784 | 100.02718 | 9213 ft | 325 kts | 153° |
| 2026-05-08 15:22 | -1.02805 | 100.03687 | 9054 ft | 314 kts | 153° |
| 2026-05-08 15:22 | -1.04715 | 100.04602 | 9035 ft | 300 kts | 153° |
| 2026-05-08 15:22 | -1.06570 | 100.05507 | 8982 ft | 287 kts | 149° |
| 2026-05-08 15:22 | -1.08026 | 100.06814 | 8545 ft | 288 kts | 120° |
| 2026-05-08 15:23 | -1.08608 | 100.08717 | 8140 ft | 288 kts | 92° |
| 2026-05-08 15:23 | -1.08231 | 100.10669 | 7755 ft | 289 kts | 67° |
| 2026-05-08 15:23 | -1.07330 | 100.12453 | 7402 ft | 289 kts | 64° |
| 2026-05-08 15:23 | -1.06438 | 100.14211 | 7053 ft | 279 kts | 64° |
| 2026-05-08 15:24 | -1.05584 | 100.15936 | 6710 ft | 274 kts | 64° |
| 2026-05-08 15:24 | -1.04754 | 100.17635 | 6370 ft | 274 kts | 65° |
| 2026-05-08 15:24 | -1.03928 | 100.19340 | 6038 ft | 274 kts | 65° |
| 2026-05-08 15:24 | -1.03085 | 100.21086 | 5388 ft | 287 kts | 64° |
| 2026-05-08 15:25 | -1.01952 | 100.22721 | 4979 ft | 287 kts | 40° |
| 2026-05-08 15:25 | -1.00218 | 100.23607 | 4779 ft | 279 kts | 15° |
| 2026-05-08 15:25 | -0.98360 | 100.24135 | 4535 ft | 275 kts | 24° |
| 2026-05-08 15:25 | -0.96835 | 100.25281 | 4277 ft | 272 kts | 51° |
| 2026-05-08 15:26 | -0.96037 | 100.26973 | 4011 ft | 271 kts | 78° |
| 2026-05-08 15:26 | -0.96027 | 100.28813 | 3798 ft | 269 kts | 98° |
| 2026-05-08 15:26 | -0.96374 | 100.30633 | 3608 ft | 263 kts | 99° |
| 2026-05-08 15:26 | -0.96634 | 100.32398 | 3442 ft | 249 kts | 94° |
| 2026-05-08 15:27 | -0.96761 | 100.34064 | 3335 ft | 231 kts | 86° |
| 2026-05-08 15:27 | -0.96310 | 100.35541 | 2984 ft | 221 kts | 52° |
| 2026-05-08 15:27 | -0.95168 | 100.36441 | 2843 ft | 203 kts | 16° |
| 2026-05-08 15:27 | -0.93817 | 100.36465 | 2857 ft | 188 kts | 341° |
| 2026-05-08 15:28 | -0.92776 | 100.35796 | 2825 ft | 165 kts | 320° |
| 2026-05-08 15:28 | -0.91976 | 100.35049 | 2636 ft | 150 kts | 317° |
| 2026-05-08 15:28 | -0.91256 | 100.34367 | 2429 ft | 139 kts | 321° |
| 2026-05-08 15:28 | -0.90490 | 100.33781 | 2262 ft | 137 kts | 327° |
| 2026-05-08 15:29 | -0.89674 | 100.33277 | 2101 ft | 137 kts | 332° |
| 2026-05-08 15:29 | -0.88841 | 100.32816 | 1936 ft | 137 kts | 334° |
| 2026-05-08 15:29 | -0.87994 | 100.32385 | 1770 ft | 136 kts | 336° |
| 2026-05-08 15:29 | -0.87130 | 100.31974 | 1592 ft | 136 kts | 336° |
| 2026-05-08 15:30 | -0.86274 | 100.31578 | 1411 ft | 136 kts | 336° |
| 2026-05-08 15:30 | -0.85419 | 100.31184 | 1232 ft | 135 kts | 336° |
| 2026-05-08 15:30 | -0.84558 | 100.30788 | 1050 ft | 135 kts | 336° |
| 2026-05-08 15:30 | -0.83704 | 100.30395 | 871 ft | 134 kts | 336° |
| 2026-05-08 15:31 | -0.82848 | 100.29999 | 692 ft | 134 kts | 335° |
| 2026-05-08 15:31 | -0.82002 | 100.29610 | 519 ft | 134 kts | 335° |
| 2026-05-08 15:31 | -0.81156 | 100.29223 | 326 ft | 133 kts | 336° |
| 2026-05-08 15:31 | -0.80314 | 100.28840 | 160 ft | 132 kts | 335° |
| 2026-05-08 15:32 | -0.79470 | 100.28439 | 63 ft | 132 kts | 335° |
| 2026-05-08 15:32 | -0.78764 | 100.28119 | 48 ft | 73 kts | 336° |
| 2026-05-08 15:32 | -0.78484 | 100.27992 | 53 ft | 33 kts | 336° |
| 2026-05-08 15:32 | -0.78298 | 100.27908 | 56 ft | 22 kts | 337° |
| 2026-05-08 15:33 | -0.78190 | 100.27888 | 57 ft | 10 kts | 327° |
| 2026-05-08 15:33 | -0.78217 | 100.27860 | 57 ft | 10 kts | 153° |
| 2026-05-08 15:33 | -0.78290 | 100.27898 | 56 ft | 13 kts | 154° |
| 2026-05-08 15:33 | -0.78380 | 100.27941 | 54 ft | 15 kts | 155° |
| 2026-05-08 15:34 | -0.78475 | 100.27985 | 53 ft | 15 kts | 155° |
| 2026-05-08 15:34 | -0.78557 | 100.28027 | 51 ft | 9 kts | 136° |
| 2026-05-08 15:34 | -0.78570 | 100.28095 | 51 ft | 11 kts | 68° |
| 2026-05-08 15:34 | -0.78542 | 100.28154 | 52 ft | 7 kts | 65° |
| 2026-05-08 15:35 | -0.78517 | 100.28207 | 52 ft | 9 kts | 65° |
| 2026-05-08 15:35 | -0.78493 | 100.28260 | 51 ft | 8 kts | 65° |
| 2026-05-08 15:35 | -0.78492 | 100.28316 | 51 ft | 9 kts | 123° |
| 2026-05-08 15:35 | -0.78553 | 100.28352 | 50 ft | 9 kts | 156° |
| 2026-05-08 15:36 | -0.78601 | 100.28374 | 50 ft | 6 kts | 155° |
| 2026-05-08 15:36 | -0.78616 | 100.28394 | 50 ft | 6 kts | 92° |
| 2026-05-08 15:36 | -0.78594 | 100.28450 | 50 ft | 5 kts | 64° |
| 2026-05-08 15:36 | -0.78584 | 100.28471 | 49 ft | 1 kts | 64° |
| 2026-05-08 15:37 | -0.78581 | 100.28477 | 49 ft | 0 kts | 64° |